createdAt,value
2019-01-02T09:01:43.532Z,7.50
2019-01-02T09:09:57.822Z,9.10
2019-01-02T09:12:44.541Z,11.00
2019-01-02T09:15:34.424Z,10.40
2019-01-02T09:18:11.815Z,9.30
2019-01-02T09:20:49.307Z,8.70
2019-01-02T09:23:32.893Z,8.70
2019-01-02T09:26:25.898Z,9.00
2019-01-02T09:29:14.271Z,8.90
2019-01-02T09:31:57.984Z,8.80
2019-01-02T09:34:46.535Z,8.80
2019-01-02T09:37:38.264Z,9.40
2019-01-02T09:40:22.001Z,10.00
2019-01-02T09:42:59.492Z,10.80
2019-01-02T09:45:52.346Z,11.20
2019-01-02T09:51:29.141Z,11.60
2019-01-02T09:54:06.940Z,12.70
2019-01-02T09:56:44.644Z,13.50
2019-01-02T09:59:48.243Z,14.10
2019-01-02T10:02:35.258Z,14.30
2019-01-02T10:05:28.521Z,13.30
2019-01-02T10:08:09.392Z,12.30
2019-01-02T10:10:58.148Z,11.20
2019-01-02T10:13:54.175Z,10.90
2019-01-02T10:16:47.684Z,11.50
2019-01-02T10:19:48.380Z,12.30
2019-01-02T10:22:26.489Z,12.30
2019-01-02T10:25:13.295Z,11.90
2019-01-02T10:27:55.602Z,11.80
2019-01-02T10:30:36.800Z,11.40
2019-01-02T10:33:28.296Z,11.40
2019-01-02T10:36:09.380Z,11.60
2019-01-02T10:39:02.356Z,11.60
2019-01-02T10:41:52.035Z,11.50
2019-01-02T10:44:41.793Z,11.20
2019-01-02T10:47:16.624Z,10.30
2019-01-02T10:50:16.749Z,9.60
2019-01-02T10:52:51.268Z,9.00
2019-01-02T10:55:37.981Z,8.50
2019-01-02T10:58:27.348Z,8.30
2019-01-02T11:01:21.940Z,8.00
2019-01-02T14:33:37.117Z,7.90
2019-01-02T14:36:06.008Z,4.50
